createdAt,value
2022-08-23T00:00:23.863Z,1.2
2022-08-23T00:01:33.495Z,1.8
2022-08-23T00:02:43.317Z,1.1
2022-08-23T00:03:52.857Z,1
2022-08-23T00:05:07.484Z,1.4
2022-08-23T00:06:12.201Z,1.5
2022-08-23T00:07:21.860Z,1.5
2022-08-23T00:08:30.639Z,1.8
2022-08-23T00:09:39.293Z,1.3
2022-08-23T00:10:48.957Z,1
2022-08-23T00:11:57.616Z,1
2022-08-23T00:13:07.281Z,1.6
2022-08-23T00:14:15.951Z,1.6
2022-08-23T00:15:23.615Z,1.1
2022-08-23T00:16:32.270Z,1.7
2022-08-23T00:17:39.921Z,1
2022-08-23T00:18:49.650Z,1.6
2022-08-23T00:19:58.244Z,1.7
2022-08-23T00:21:06.915Z,1.8
2022-08-23T00:22:15.562Z,1.8
2022-08-23T00:23:23.200Z,2.8
2022-08-23T00:24:32.862Z,1
2022-08-23T00:25:41.562Z,0.9
2022-08-23T00:26:50.219Z,1.3
2022-08-23T00:28:00.022Z,0.8
2022-08-23T00:29:08.519Z,1.3
2022-08-23T00:30:17.173Z,2.5
2022-08-23T00:31:25.848Z,1.1
2022-08-23T00:32:34.515Z,1.2
2022-08-23T00:33:44.165Z,1.6
2022-08-23T00:34:52.821Z,1.3
2022-08-23T00:36:00.468Z,1.7
2022-08-23T00:37:10.150Z,1.2
2022-08-23T00:38:33.484Z,1.3
2022-08-23T00:39:29.419Z,2
2022-08-23T00:40:38.076Z,1.8
2022-08-23T00:41:45.720Z,2.8
2022-08-23T00:42:55.404Z,2
2022-08-23T00:44:05.063Z,1.9
2022-08-23T00:45:12.736Z,2.1
2022-08-23T00:46:22.400Z,1.8
2022-08-23T00:47:32.053Z,1.7
2022-08-23T00:48:40.739Z,1.9
2022-08-23T00:49:49.417Z,1.7
2022-08-23T00:50:58.109Z,2
2022-08-23T00:52:07.810Z,1.4
2022-08-23T00:53:16.456Z,1.1
2022-08-23T00:54:24.275Z,1.7
2022-08-23T00:55:33.953Z,1.5
2022-08-23T00:56:42.610Z,1.3
2022-08-23T00:57:51.260Z,1.5
2022-08-23T00:59:00.920Z,1.6
2022-08-23T01:00:09.588Z,1.2
2022-08-23T01:01:19.250Z,1.3
2022-08-23T01:02:29.020Z,1.4
2022-08-23T01:03:39.124Z,2
2022-08-23T01:04:49.205Z,2
2022-08-23T01:05:57.877Z,1.3
2022-08-23T01:07:06.552Z,1.5
2022-08-23T01:08:15.197Z,1.5
2022-08-23T01:09:24.850Z,1.2
2022-08-23T01:10:34.544Z,0.8
2022-08-23T01:11:43.249Z,1.8
2022-08-23T01:12:50.925Z,1.4
2022-08-23T01:14:00.585Z,0.9
2022-08-23T01:15:09.224Z,1.7
2022-08-23T01:16:18.875Z,1.2
2022-08-23T01:17:27.593Z,1.5
2022-08-23T01:18:35.240Z,2.1
2022-08-23T01:19:43.892Z,1.5
2022-08-23T01:20:52.536Z,3
2022-08-23T01:22:00.185Z,2.7
2022-08-23T01:23:09.867Z,0.9
2022-08-23T01:24:27.511Z,1.3
2022-08-23T01:25:29.144Z,2
2022-08-23T01:26:38.820Z,1.7
2022-08-23T01:27:47.468Z,1.7
2022-08-23T01:28:57.177Z,1.6
2022-08-23T01:30:05.847Z,0.9
2022-08-23T01:31:13.502Z,1.7
2022-08-23T01:32:23.180Z,1.5
2022-08-23T01:33:33.852Z,1.3
2022-08-23T01:34:44.677Z,1.7
2022-08-23T01:35:54.155Z,1.6
2022-08-23T01:37:02.807Z,2.1
2022-08-23T01:38:12.478Z,2.4
2022-08-23T01:39:21.120Z,2.5
2022-08-23T01:40:29.846Z,2.1
2022-08-23T01:41:39.513Z,1.4
2022-08-23T01:42:48.209Z,1.4
2022-08-23T01:43:56.856Z,2.3
2022-08-23T01:45:04.506Z,1.5
2022-08-23T01:46:13.181Z,1.7
2022-08-23T01:47:22.853Z,1.2
2022-08-23T01:48:31.502Z,1.8
2022-08-23T01:49:39.158Z,1.8
2022-08-23T01:50:48.822Z,3.9
2022-08-23T01:51:57.483Z,1.6
2022-08-23T01:53:06.129Z,1.3
2022-08-23T01:54:14.783Z,2.2
2022-08-23T01:55:22.438Z,1.7
2022-08-23T01:56:38.455Z,1.4
2022-08-23T01:57:41.855Z,1.8
2022-08-23T01:58:50.506Z,1.7
2022-08-23T02:00:00.177Z,2.1
2022-08-23T02:01:08.820Z,3.3
2022-08-23T02:02:17.491Z,1.4
2022-08-23T02:03:26.189Z,1.5
2022-08-23T02:04:34.850Z,1.1
2022-08-23T02:05:44.560Z,1.5
2022-08-23T02:06:53.180Z,2.2
2022-08-23T02:08:00.952Z,3.9
2022-08-23T02:09:15.993Z,1.9
2022-08-23T02:10:20.134Z,1.3
2022-08-23T02:11:28.816Z,3
2022-08-23T02:12:37.502Z,1.7
2022-08-23T02:13:46.140Z,1.8
2022-08-23T02:14:54.908Z,2.2
2022-08-23T02:16:02.584Z,1.7
2022-08-23T02:17:13.273Z,2
2022-08-23T02:18:21.917Z,2.4
2022-08-23T02:19:31.576Z,1.5
2022-08-23T02:20:41.264Z,1.9
2022-08-23T02:21:50.924Z,2
2022-08-23T02:22:59.667Z,1.3
2022-08-23T02:24:09.231Z,2.4
2022-08-23T02:25:16.880Z,1.3
2022-08-23T02:26:30.674Z,1.8
2022-08-23T02:27:36.178Z,2.6
2022-08-23T02:28:45.872Z,1.8
2022-08-23T02:29:55.534Z,1.7
2022-08-23T02:31:04.191Z,2.2
2022-08-23T02:32:12.854Z,1.4
2022-08-23T02:33:22.514Z,1.5
2022-08-23T02:34:45.232Z,2.6
2022-08-23T02:35:55.999Z,1.8
2022-08-23T02:37:03.765Z,1.4
2022-08-23T02:38:13.560Z,1.9
2022-08-23T02:39:23.353Z,1.5
2022-08-23T02:40:32.101Z,1.5
2022-08-23T02:41:40.873Z,2
2022-08-23T02:42:49.623Z,2.2
2022-08-23T02:43:57.394Z,2
2022-08-23T02:45:07.149Z,1.8
2022-08-23T02:46:16.919Z,2.3
2022-08-23T02:47:24.672Z,1.8
2022-08-23T02:48:34.438Z,2
2022-08-23T02:49:43.262Z,2.2
2022-08-23T02:50:51.015Z,1.6
2022-08-23T02:51:59.781Z,1.4
2022-08-23T02:53:07.541Z,3.3
2022-08-23T02:54:17.320Z,2.2
2022-08-23T02:55:27.101Z,1.9
2022-08-23T02:56:34.871Z,2.6
2022-08-23T02:57:44.632Z,2
2022-08-23T02:58:54.937Z,2.1
2022-08-23T03:00:04.196Z,2.1
2022-08-23T03:01:13.109Z,1.9
2022-08-23T03:02:22.896Z,2.2
2022-08-23T03:03:32.654Z,1.4
2022-08-23T03:04:42.416Z,1.7
2022-08-23T03:05:50.212Z,3.2
2022-08-23T03:06:59.049Z,1.8
2022-08-23T03:08:07.825Z,1.9
2022-08-23T03:09:17.588Z,1.8
2022-08-23T03:10:26.336Z,2.2
2022-08-23T03:11:34.086Z,2.3
2022-08-23T03:12:43.865Z,1.4
2022-08-23T03:13:53.633Z,1.9
2022-08-23T03:15:01.399Z,1.9
2022-08-23T03:16:12.160Z,1.4
2022-08-23T03:17:20.957Z,2.5
2022-08-23T03:18:30.748Z,1.8
2022-08-23T03:19:39.535Z,2
2022-08-23T03:20:46.300Z,1.3
2022-08-23T03:21:56.053Z,1.8
2022-08-23T03:23:04.835Z,1.2
2022-08-23T03:24:12.622Z,2.6
2022-08-23T03:25:22.418Z,2.7
2022-08-23T03:26:31.153Z,2.4
2022-08-23T03:27:44.624Z,2.6
2022-08-23T03:28:51.682Z,2
2022-08-23T03:30:00.464Z,1.8
2022-08-23T03:31:10.279Z,2.4
2022-08-23T03:32:19.851Z,3.3
2022-08-23T03:33:28.497Z,2.4
2022-08-23T03:34:38.154Z,1.2
2022-08-23T03:35:46.812Z,1.8
2022-08-23T03:36:55.466Z,2.8
2022-08-23T03:38:05.157Z,1.4
2022-08-23T03:39:11.826Z,1.5
2022-08-23T03:40:21.561Z,1.5
2022-08-23T03:41:30.143Z,1.7
2022-08-23T03:42:39.821Z,3.3
2022-08-23T03:43:49.490Z,1.4
2022-08-23T03:45:01.914Z,1.9
2022-08-23T03:46:08.787Z,1.3
2022-08-23T03:47:17.464Z,2
2022-08-23T03:48:26.113Z,2.3
2022-08-23T03:49:35.794Z,1.3
2022-08-23T03:50:44.459Z,2
2022-08-23T03:51:52.110Z,1.8
2022-08-23T03:53:01.828Z,3.5
2022-08-23T03:54:10.482Z,2.1
2022-08-23T03:55:19.144Z,2.7
2022-08-23T03:56:28.822Z,2.4
2022-08-23T03:57:36.474Z,1.4
2022-08-23T03:58:46.160Z,2
2022-08-23T03:59:54.821Z,2.2
2022-08-23T04:01:03.478Z,2.3
2022-08-23T04:02:13.167Z,2.7
2022-08-23T04:03:21.803Z,2.6
2022-08-23T04:04:30.596Z,2.6
2022-08-23T04:05:40.274Z,2.2
2022-08-23T04:06:48.958Z,2.8
2022-08-23T04:07:58.667Z,1.5
2022-08-23T04:09:07.258Z,1.6
2022-08-23T04:10:15.968Z,2.4
2022-08-23T04:11:25.631Z,1.7
2022-08-23T04:12:34.284Z,2.1
2022-08-23T04:13:43.952Z,2.7
2022-08-23T04:14:53.624Z,2.3
2022-08-23T04:16:02.290Z,1.8
2022-08-23T04:17:09.947Z,1.9
2022-08-23T04:18:17.615Z,2.8
2022-08-23T04:19:26.263Z,2.3
2022-08-23T04:20:36.934Z,2
2022-08-23T04:21:44.641Z,2.2
2022-08-23T04:22:54.307Z,1.5
2022-08-23T04:24:02.976Z,2
2022-08-23T04:25:14.107Z,1.5
2022-08-23T04:26:26.124Z,1.7
2022-08-23T04:27:32.019Z,2.2
2022-08-23T04:28:41.633Z,1.6
2022-08-23T04:29:50.295Z,2.4
2022-08-23T04:30:59.962Z,1.8
2022-08-23T04:32:11.576Z,2.4
2022-08-23T04:33:21.270Z,2.5
2022-08-23T04:34:28.878Z,3.3
2022-08-23T04:35:36.563Z,2.9
2022-08-23T04:36:47.872Z,2.9
2022-08-23T04:37:55.916Z,2.9
2022-08-23T04:39:04.561Z,1.5
2022-08-23T04:40:13.269Z,2.1
2022-08-23T04:41:22.873Z,2.9
2022-08-23T04:42:30.521Z,2
2022-08-23T04:43:39.180Z,1.9
2022-08-23T04:44:48.854Z,2.4
2022-08-23T04:45:56.496Z,2.2
2022-08-23T04:47:06.168Z,1.8
2022-08-23T04:48:14.813Z,2.4
2022-08-23T04:49:24.536Z,2.7
2022-08-23T04:50:35.157Z,3.3
2022-08-23T04:51:43.795Z,2.3
2022-08-23T04:52:54.439Z,2.6
2022-08-23T04:54:03.090Z,3.3
2022-08-23T04:55:10.744Z,2.7
2022-08-23T04:56:20.436Z,2.4
2022-08-23T04:57:29.168Z,2.8
2022-08-23T04:58:36.788Z,3
2022-08-23T04:59:46.459Z,2.4
2022-08-23T05:00:56.140Z,1.2
2022-08-23T05:02:04.784Z,3
2022-08-23T05:03:14.446Z,2.3
2022-08-23T05:04:22.094Z,5.5
2022-08-23T05:05:31.753Z,1.8
2022-08-23T05:06:40.395Z,3
2022-08-23T05:07:48.122Z,2.9
2022-08-23T05:08:57.795Z,2.1
2022-08-23T05:10:06.434Z,2.3
2022-08-23T05:11:16.108Z,1.7
2022-08-23T05:12:24.749Z,3.2
2022-08-23T05:13:32.718Z,2.4
2022-08-23T05:14:44.315Z,3.5
2022-08-23T05:15:52.765Z,1.9
2022-08-23T05:17:01.383Z,2.6
2022-08-23T05:18:11.024Z,1.2
2022-08-23T05:19:19.701Z,2.1
2022-08-23T05:20:28.375Z,2
2022-08-23T05:21:37.041Z,1.6
2022-08-23T05:22:44.678Z,2.2
2022-08-23T05:23:54.599Z,2.3
2022-08-23T05:25:03.985Z,4
2022-08-23T05:26:12.650Z,1.5
2022-08-23T05:27:22.311Z,2.5
2022-08-23T05:28:30.974Z,2.3
2022-08-23T05:29:40.639Z,1.9
2022-08-23T05:30:55.202Z,1.8
2022-08-23T05:32:00.944Z,1.3
2022-08-23T05:33:10.616Z,2.3
2022-08-23T05:34:22.366Z,2
2022-08-23T05:35:28.929Z,2.7
2022-08-23T05:36:38.607Z,2.2
2022-08-23T05:37:48.242Z,2.3
2022-08-23T05:38:56.915Z,6.7
2022-08-23T05:40:05.641Z,2.3
2022-08-23T05:41:13.225Z,1.9
2022-08-23T05:42:22.921Z,2.2
2022-08-23T05:43:32.567Z,1.9
2022-08-23T05:44:40.224Z,2.1
2022-08-23T05:45:50.893Z,2.1
2022-08-23T05:47:00.541Z,2.7
2022-08-23T05:48:09.204Z,2.8
2022-08-23T05:49:20.967Z,1.4
2022-08-23T05:50:27.489Z,1.5
2022-08-23T05:51:38.160Z,2.1
2022-08-23T05:52:50.890Z,2.9
2022-08-23T05:53:57.460Z,2.8
2022-08-23T05:55:07.128Z,1.4
2022-08-23T05:56:15.797Z,1.9
2022-08-23T05:57:24.444Z,1.7
2022-08-23T05:58:34.140Z,1.3
2022-08-23T05:59:42.151Z,0.9
2022-08-23T06:00:51.536Z,1.6
2022-08-23T06:02:01.145Z,2.2
2022-08-23T06:03:10.818Z,1.9
2022-08-23T06:04:20.486Z,1.8
2022-08-23T06:05:29.275Z,2.7
2022-08-23T06:06:38.932Z,1.8
2022-08-23T06:07:47.606Z,1.2
2022-08-23T06:08:55.293Z,3.5
2022-08-23T06:10:04.961Z,1.6
2022-08-23T06:11:13.756Z,1.7
2022-08-23T06:12:23.413Z,1.3
2022-08-23T06:13:33.068Z,1.5
2022-08-23T06:14:40.736Z,1.6
2022-08-23T06:15:50.420Z,1.2
2022-08-23T06:17:00.116Z,1
2022-08-23T06:18:08.776Z,1.8
2022-08-23T06:19:17.430Z,1.2
2022-08-23T06:20:25.142Z,1.3
2022-08-23T06:21:34.777Z,1.2
2022-08-23T06:22:45.454Z,1.1
2022-08-23T06:23:53.118Z,1.8
2022-08-23T06:25:02.791Z,1.4
2022-08-23T06:26:11.446Z,0.8
2022-08-23T06:27:21.117Z,1.7
2022-08-23T06:28:30.852Z,2.7
2022-08-23T06:29:40.482Z,1.6
2022-08-23T06:30:50.189Z,3
2022-08-23T06:31:59.765Z,1.3
2022-08-23T06:33:08.411Z,2.2
2022-08-23T06:34:18.101Z,1.1
2022-08-23T06:35:33.343Z,1.8
2022-08-23T06:36:37.421Z,1.9
2022-08-23T06:37:47.069Z,5.4
2022-08-23T06:38:54.781Z,1.8
2022-08-23T06:40:04.515Z,2.1
2022-08-23T06:41:12.117Z,1
2022-08-23T06:42:37.820Z,1.4
2022-08-23T06:43:32.441Z,1.6
2022-08-23T06:44:41.094Z,1.5
2022-08-23T06:45:55.161Z,1.9
2022-08-23T06:47:01.460Z,2.4
2022-08-23T06:48:09.089Z,1.9
2022-08-23T06:49:19.769Z,2.4
2022-08-23T06:50:31.950Z,1.8
2022-08-23T06:51:39.120Z,2
2022-08-23T06:52:48.788Z,1.2
2022-08-23T06:53:57.420Z,1.5
2022-08-23T06:55:11.796Z,1.9
2022-08-23T06:56:18.739Z,1.7
2022-08-23T06:57:26.434Z,1.5
2022-08-23T06:58:36.086Z,1
2022-08-23T06:59:45.736Z,1.4
2022-08-23T07:00:57.437Z,0.9
2022-08-23T07:02:05.138Z,1.1
2022-08-23T07:03:13.722Z,2.2
2022-08-23T07:04:22.380Z,1.3
2022-08-23T07:05:32.048Z,1.7
2022-08-23T07:06:40.762Z,1.2
2022-08-23T07:07:50.421Z,1
2022-08-23T07:09:00.112Z,0.8
2022-08-23T07:10:08.813Z,1.3
2022-08-23T07:11:18.486Z,0.6
2022-08-23T07:12:28.163Z,1
2022-08-23T07:13:37.934Z,0.9
2022-08-23T07:14:47.776Z,1
2022-08-23T07:15:55.487Z,1.3
2022-08-23T07:17:05.105Z,1.2
2022-08-23T07:18:13.748Z,1.1
2022-08-23T07:19:21.423Z,1
2022-08-23T07:20:32.131Z,0.6
2022-08-23T07:21:40.812Z,0.5
2022-08-23T07:22:49.496Z,1.3
2022-08-23T07:23:58.164Z,0.3
2022-08-23T07:25:07.849Z,0.8
2022-08-23T07:26:16.569Z,0.5
2022-08-23T07:27:25.237Z,0.5
2022-08-23T07:28:34.007Z,0.2
2022-08-23T07:29:43.801Z,0.3
2022-08-23T07:30:52.465Z,0.4
2022-08-23T07:32:01.260Z,1
2022-08-23T07:33:09.900Z,0.5
2022-08-23T07:34:18.552Z,1.2
2022-08-23T07:35:29.205Z,0.3
2022-08-23T07:36:37.872Z,1.2
2022-08-23T07:37:45.530Z,1.6
2022-08-23T07:38:55.244Z,0.6
2022-08-23T07:40:03.903Z,0.5
2022-08-23T07:41:12.515Z,0.8
2022-08-23T07:42:23.203Z,0.3
2022-08-23T07:43:30.824Z,0.6
2022-08-23T07:44:41.476Z,0.5
2022-08-23T07:45:51.668Z,0.3
2022-08-23T07:47:00.926Z,0.4
2022-08-23T07:48:10.416Z,0.3
2022-08-23T07:49:20.083Z,0.8
2022-08-23T07:50:30.323Z,0.2
2022-08-23T07:51:39.398Z,0.7
2022-08-23T07:52:49.059Z,0.6
2022-08-23T07:53:58.719Z,0.4
2022-08-23T07:55:08.407Z,0.9
2022-08-23T07:56:16.162Z,1.1
2022-08-23T07:57:25.855Z,0.2
2022-08-23T07:58:34.516Z,1
2022-08-23T07:59:42.211Z,0.3
2022-08-23T08:00:50.910Z,0.3
2022-08-23T08:01:58.630Z,1.2
2022-08-23T08:03:08.281Z,0.8
2022-08-23T08:04:16.860Z,0.8
2022-08-23T08:05:25.516Z,0.2
2022-08-23T08:06:35.242Z,0.4
2022-08-23T08:07:42.902Z,0.3
2022-08-23T08:08:52.571Z,0.9
2022-08-23T08:10:02.225Z,0.4
2022-08-23T08:11:11.910Z,0.5
2022-08-23T08:12:20.587Z,0.3
2022-08-23T08:13:28.237Z,0.2
2022-08-23T08:14:37.885Z,0.4
2022-08-23T08:15:46.554Z,0.6
2022-08-23T08:16:54.200Z,0.3
2022-08-23T08:18:03.987Z,0.2
2022-08-23T08:19:13.622Z,0.4
2022-08-23T08:20:23.279Z,0.1
2022-08-23T08:21:31.944Z,0.7
2022-08-23T08:22:43.295Z,0.3
2022-08-23T08:23:51.291Z,0.2
2022-08-23T08:25:00.932Z,0.5
2022-08-23T08:26:08.589Z,0.6
2022-08-23T08:27:18.258Z,10.6
2022-08-23T08:28:27.952Z,0.5
2022-08-23T08:29:36.631Z,0.2
2022-08-23T08:30:45.290Z,0.2
2022-08-23T08:31:54.925Z,0.3
2022-08-23T08:33:04.597Z,0.2
2022-08-23T08:34:13.243Z,0.3
2022-08-23T08:35:22.591Z,0.7
2022-08-23T08:36:31.602Z,0.2
2022-08-23T08:37:41.261Z,0.8
2022-08-23T08:38:52.497Z,0.5
2022-08-23T08:40:01.594Z,0.2
2022-08-23T08:41:09.216Z,0.5
2022-08-23T08:42:18.869Z,0.2
2022-08-23T08:43:28.588Z,0.3
2022-08-23T08:44:37.252Z,0.2
2022-08-23T08:45:47.584Z,0.3
2022-08-23T08:46:57.624Z,0.2
2022-08-23T08:48:10.189Z,0.3
2022-08-23T08:49:17.907Z,0.5
2022-08-23T08:50:25.558Z,0.4
2022-08-23T08:51:35.310Z,0.7
2022-08-23T08:52:43.960Z,0.2
2022-08-23T08:53:51.630Z,0.7
2022-08-23T08:55:01.301Z,0.3
2022-08-23T08:56:10.227Z,0.7
2022-08-23T08:57:22.700Z,0.5
2022-08-23T08:58:31.248Z,0.2
2022-08-23T08:59:39.922Z,0.3
2022-08-23T09:00:52.736Z,0.5
2022-08-23T09:01:59.313Z,0.3
2022-08-23T09:03:07.984Z,0.4
2022-08-23T09:04:17.572Z,0.3
2022-08-23T09:05:26.231Z,0.5
2022-08-23T09:06:34.885Z,0.1
2022-08-23T09:07:44.538Z,1
2022-08-23T09:08:53.191Z,0.4
2022-08-23T09:10:03.714Z,1.3
2022-08-23T09:11:12.543Z,0.7
2022-08-23T09:12:21.225Z,0.4
2022-08-23T09:13:30.872Z,0.3
2022-08-23T09:14:40.524Z,0.5
2022-08-23T09:15:48.236Z,0.5
2022-08-23T09:16:56.852Z,0.2
2022-08-23T09:18:05.501Z,0.2
2022-08-23T09:19:15.158Z,0.5
2022-08-23T09:20:24.834Z,0.4
2022-08-23T09:21:34.621Z,0.3
2022-08-23T09:22:44.306Z,0.3
2022-08-23T09:23:57.089Z,0.4
2022-08-23T09:25:03.583Z,0.3
2022-08-23T09:26:14.231Z,0.7
2022-08-23T09:27:21.908Z,0.9
2022-08-23T09:28:31.587Z,0.4
2022-08-23T09:29:40.233Z,0.2
2022-08-23T09:30:48.912Z,0.2
2022-08-23T09:31:58.605Z,0.3
2022-08-23T09:33:07.200Z,0.4
2022-08-23T09:34:15.850Z,0.4
2022-08-23T09:35:25.529Z,0.2
2022-08-23T09:36:34.171Z,0.2
2022-08-23T09:37:43.866Z,0.4
2022-08-23T09:38:52.737Z,0.5
2022-08-23T09:40:01.428Z,0.4
2022-08-23T09:41:11.060Z,0.4
2022-08-23T09:42:19.703Z,1.2
2022-08-23T09:43:29.386Z,0.2
2022-08-23T09:44:38.067Z,0.9
2022-08-23T09:45:46.714Z,0.3
2022-08-23T09:46:55.385Z,0.3
2022-08-23T09:48:04.024Z,1.1
2022-08-23T09:49:13.685Z,0.4
2022-08-23T09:50:23.412Z,0.4
2022-08-23T09:51:32.100Z,0.5
2022-08-23T09:52:41.737Z,0.5
2022-08-23T09:53:52.403Z,0.2
2022-08-23T09:55:01.089Z,0.4
2022-08-23T09:56:10.751Z,0.3
2022-08-23T09:57:19.411Z,0.6
2022-08-23T09:58:28.080Z,0.2
2022-08-23T09:59:37.748Z,0.1
2022-08-23T10:00:46.411Z,0.4
2022-08-23T10:01:55.177Z,0.3
2022-08-23T10:03:03.793Z,0.1
2022-08-23T10:04:12.460Z,0.1
2022-08-23T10:05:22.092Z,0.2
2022-08-23T10:06:31.740Z,0.2
2022-08-23T10:07:42.490Z,0.4
2022-08-23T10:08:51.077Z,0.2
2022-08-23T10:09:59.723Z,0.2
2022-08-23T10:11:09.367Z,0.1
2022-08-23T10:12:18.029Z,0.5
2022-08-23T10:13:28.790Z,0.4
2022-08-23T10:14:38.446Z,0.4
2022-08-23T10:15:47.133Z,1.6
2022-08-23T10:16:56.780Z,0.8
2022-08-23T10:18:06.432Z,0.3
2022-08-23T10:19:14.119Z,0.2
2022-08-23T10:20:23.791Z,0.2
2022-08-23T10:21:32.434Z,0.2
2022-08-23T10:22:43.092Z,0.4
2022-08-23T10:23:51.760Z,0.4
2022-08-23T10:24:59.543Z,0.1
2022-08-23T10:26:09.208Z,0.3
2022-08-23T10:27:17.871Z,0.7
2022-08-23T10:28:25.537Z,0.2
2022-08-23T10:29:35.191Z,0.4
2022-08-23T10:30:43.919Z,0.1
2022-08-23T10:31:51.525Z,0.3
2022-08-23T10:33:01.180Z,0.2
2022-08-23T10:34:08.854Z,0.1
2022-08-23T10:35:18.533Z,0.5
2022-08-23T10:36:27.215Z,0.2
2022-08-23T10:37:36.864Z,0.6
2022-08-23T10:38:46.522Z,0.2
2022-08-23T10:39:59.172Z,0.2
2022-08-23T10:41:06.783Z,1
2022-08-23T10:42:15.552Z,0.1
2022-08-23T10:43:25.201Z,0.2
2022-08-23T10:44:34.874Z,0.3
2022-08-23T10:45:43.513Z,0.6
2022-08-23T10:46:51.188Z,0.1
2022-08-23T10:48:00.930Z,0.3
2022-08-23T10:49:10.592Z,0.3
2022-08-23T10:50:19.226Z,0.4
2022-08-23T10:51:31.440Z,0.1
2022-08-23T10:52:37.521Z,1.1
2022-08-23T10:53:47.275Z,0.3
2022-08-23T10:54:56.936Z,0.2
2022-08-23T10:56:05.611Z,0.1
2022-08-23T10:57:15.275Z,0.5
2022-08-23T10:58:23.917Z,0.1
2022-08-23T10:59:33.597Z,0.7
2022-08-23T11:00:41.253Z,1.4
2022-08-23T11:01:49.982Z,0.9
2022-08-23T11:02:59.656Z,0.6
2022-08-23T11:04:08.271Z,0.3
2022-08-23T11:05:16.972Z,0.2
2022-08-23T11:06:25.658Z,0.6
2022-08-23T11:07:34.328Z,0.2
2022-08-23T11:08:47.437Z,0.9
2022-08-23T11:09:54.715Z,0.2
2022-08-23T11:11:03.396Z,0.1
2022-08-23T11:12:13.051Z,0.2
2022-08-23T11:13:21.688Z,0.2
2022-08-23T11:14:29.364Z,0.4
2022-08-23T11:15:41.483Z,0.8
2022-08-23T11:16:48.711Z,0.2
2022-08-23T11:17:59.371Z,0.1
2022-08-23T11:19:09.025Z,0.1
2022-08-23T11:20:18.697Z,0.6
2022-08-23T11:21:28.373Z,0.2
2022-08-23T11:22:37.051Z,0.3
2022-08-23T11:23:44.704Z,0.3
2022-08-23T11:24:54.397Z,0.2
2022-08-23T11:26:03.082Z,0.6
2022-08-23T11:27:11.751Z,0.1
2022-08-23T11:28:22.545Z,0.5
2022-08-23T11:29:31.190Z,0.3
2022-08-23T11:30:40.874Z,0.2
2022-08-23T11:31:50.525Z,0.4
2022-08-23T11:32:58.188Z,0.2
2022-08-23T11:34:07.889Z,0.1
2022-08-23T11:35:16.512Z,0.2
2022-08-23T11:36:25.164Z,1.1
2022-08-23T11:37:33.823Z,0.1
2022-08-23T11:38:43.493Z,0.2
2022-08-23T11:39:53.217Z,0.1
2022-08-23T11:41:01.836Z,0.2
2022-08-23T11:42:10.477Z,0.3
2022-08-23T11:43:20.175Z,0
2022-08-23T11:44:28.871Z,0
2022-08-23T11:45:38.636Z,0.2
2022-08-23T11:46:48.296Z,0.6
2022-08-23T11:47:56.998Z,0.1
2022-08-23T11:49:06.654Z,0.4
2022-08-23T11:50:15.344Z,0.3
2022-08-23T11:51:23.047Z,0.2
2022-08-23T11:52:32.714Z,0.8
2022-08-23T11:53:41.408Z,0.2
2022-08-23T11:54:50.051Z,0.2
2022-08-23T11:55:59.751Z,0.3
2022-08-23T11:57:07.425Z,0.2
2022-08-23T11:58:17.126Z,0.3
2022-08-23T11:59:25.828Z,0.1
2022-08-23T12:00:33.520Z,0.2
2022-08-23T12:01:43.186Z,0.1
2022-08-23T12:02:52.071Z,0.4
2022-08-23T12:04:01.747Z,0.1
2022-08-23T12:05:11.269Z,0.1
2022-08-23T12:06:21.399Z,0.8
2022-08-23T12:07:29.592Z,0.7
2022-08-23T12:08:37.267Z,0.2
2022-08-23T12:09:46.965Z,1.2
2022-08-23T12:10:56.620Z,0.6
2022-08-23T12:12:04.274Z,0
2022-08-23T12:13:13.954Z,0.1
2022-08-23T12:14:23.632Z,0.2
2022-08-23T12:15:31.287Z,0.1
2022-08-23T12:16:44.340Z,0
2022-08-23T12:17:52.572Z,0.1
2022-08-23T12:19:02.279Z,0.2
2022-08-23T12:20:16.202Z,0.1
2022-08-23T12:21:20.599Z,0.1
2022-08-23T12:22:29.277Z,0.1
2022-08-23T12:23:37.934Z,0
2022-08-23T12:24:46.832Z,0.1
2022-08-23T12:25:55.275Z,0.2
2022-08-23T12:27:02.930Z,0.1
2022-08-23T12:28:12.601Z,0.5
2022-08-23T12:29:21.296Z,0.5
2022-08-23T12:30:28.978Z,0.1
2022-08-23T12:31:38.784Z,0.1
2022-08-23T12:32:47.361Z,0.9
2022-08-23T12:33:57.033Z,0.1
2022-08-23T12:35:05.687Z,0.1
2022-08-23T12:36:16.462Z,0.3
2022-08-23T12:37:25.000Z,2
2022-08-23T12:38:33.703Z,0.3
2022-08-23T12:39:41.396Z,0.5
2022-08-23T12:40:50.020Z,0
2022-08-23T12:41:59.677Z,0.3
2022-08-23T12:43:08.384Z,0.1
2022-08-23T12:44:18.035Z,0.1
2022-08-23T12:45:24.689Z,0.4
2022-08-23T12:46:34.417Z,0.4
2022-08-23T12:47:43.244Z,0.1
2022-08-23T12:48:50.863Z,0
2022-08-23T12:50:00.524Z,0.3
2022-08-23T12:51:09.171Z,0.3
2022-08-23T12:52:17.836Z,0.7
2022-08-23T12:53:26.496Z,0.1
2022-08-23T12:54:34.234Z,0.4
2022-08-23T12:55:43.924Z,0.8
2022-08-23T12:56:52.579Z,0.2
2022-08-23T12:58:01.228Z,0.4
2022-08-23T12:59:09.886Z,0.2
2022-08-23T13:00:19.596Z,0.1
2022-08-23T13:01:29.950Z,1.4
2022-08-23T13:02:38.892Z,0.6
2022-08-23T13:03:47.517Z,0
2022-08-23T13:04:57.198Z,0.2
2022-08-23T13:06:05.855Z,0.1
2022-08-23T13:07:14.484Z,0.7
2022-08-23T13:08:27.429Z,0.5
2022-08-23T13:09:33.757Z,0.1
2022-08-23T13:10:42.429Z,0.7
2022-08-23T13:11:51.105Z,0.1
2022-08-23T13:13:00.717Z,0.2
2022-08-23T13:14:09.451Z,0.3
2022-08-23T13:15:17.142Z,0.4
2022-08-23T13:16:27.571Z,0.2
2022-08-23T13:17:36.495Z,0.7
2022-08-23T13:18:46.168Z,0.2
2022-08-23T13:19:54.824Z,0.4
2022-08-23T13:21:03.484Z,0.3
2022-08-23T13:22:11.144Z,0.2
2022-08-23T13:23:20.522Z,0.2
2022-08-23T13:24:30.055Z,0.3
2022-08-23T13:25:38.078Z,0
2022-08-23T13:26:47.717Z,0.1
2022-08-23T13:27:56.377Z,0.6
2022-08-23T13:29:06.058Z,0.2
2022-08-23T13:30:14.710Z,0.1
2022-08-23T13:31:24.455Z,0.1
2022-08-23T13:32:34.046Z,0.1
2022-08-23T13:33:43.566Z,0.2
2022-08-23T13:34:51.469Z,0.2
2022-08-23T13:36:01.136Z,0
2022-08-23T13:37:10.906Z,0.3
2022-08-23T13:38:21.781Z,0.2
2022-08-23T13:39:30.197Z,0.2
2022-08-23T13:40:37.857Z,0.1
2022-08-23T13:41:47.513Z,0.2
2022-08-23T13:42:56.214Z,0.8
2022-08-23T13:44:04.826Z,0.1
2022-08-23T13:45:14.475Z,0.1
2022-08-23T13:46:24.241Z,0.2
2022-08-23T13:47:35.123Z,0.2
2022-08-23T13:48:44.449Z,0.1
2022-08-23T13:49:52.101Z,0.3
2022-08-23T13:51:01.785Z,0.2
2022-08-23T13:53:20.212Z,0.2
2022-08-23T13:54:29.908Z,0.2
2022-08-23T13:55:38.578Z,0.6
2022-08-23T13:56:47.263Z,0
2022-08-23T13:57:55.999Z,0.4
2022-08-23T13:59:03.637Z,0.6
2022-08-23T14:00:16.516Z,0.8
2022-08-23T14:01:23.960Z,0.8
2022-08-23T14:02:33.590Z,0
2022-08-23T14:03:41.275Z,0.2
2022-08-23T14:04:50.020Z,0
2022-08-23T14:05:59.590Z,0.2
2022-08-23T14:07:08.234Z,0.1
2022-08-23T14:08:16.882Z,0.3
2022-08-23T14:09:25.572Z,0.2
2022-08-23T14:10:33.223Z,0.2
2022-08-23T14:11:42.874Z,0
2022-08-23T14:12:51.520Z,0.5
2022-08-23T14:13:59.166Z,0.3
2022-08-23T14:15:08.888Z,0.3
2022-08-23T14:16:34.734Z,0.1
2022-08-23T14:17:28.280Z,0.8
2022-08-23T14:18:38.040Z,0
2022-08-23T14:20:32.745Z,0.6
2022-08-23T14:20:59.169Z,0.5
2022-08-23T14:22:07.825Z,0.1
2022-08-23T14:23:16.478Z,0.3
2022-08-23T14:24:26.879Z,0.2
2022-08-23T14:25:35.823Z,0.2
2022-08-23T14:26:48.873Z,0.3
2022-08-23T14:27:56.126Z,0.4
2022-08-23T14:29:05.787Z,0
2022-08-23T14:30:16.417Z,0.4
2022-08-23T14:31:25.127Z,1
2022-08-23T14:32:33.798Z,0.3
2022-08-23T14:33:43.461Z,0.4
2022-08-23T14:34:52.132Z,0.2
2022-08-23T14:36:00.834Z,0.3
2022-08-23T14:38:18.501Z,0.6
2022-08-23T14:39:27.928Z,0.9
2022-08-23T14:40:36.585Z,0.1
2022-08-23T14:41:44.225Z,0.2
2022-08-23T14:42:54.875Z,0.1
2022-08-23T14:44:03.555Z,0.1
2022-08-23T14:45:12.220Z,0.2
2022-08-23T14:46:20.912Z,0.2
2022-08-23T14:47:28.532Z,0.1
2022-08-23T14:48:38.240Z,0.6
2022-08-23T14:49:49.008Z,0
2022-08-23T14:50:55.564Z,0.4
2022-08-23T14:52:05.246Z,0.4
2022-08-23T14:53:13.905Z,0
2022-08-23T14:54:21.561Z,0.1
2022-08-23T14:55:30.227Z,0.4
2022-08-23T14:56:40.067Z,0.1
2022-08-23T14:57:49.893Z,0
2022-08-23T14:58:59.561Z,0.1
2022-08-23T15:00:07.237Z,0.2
2022-08-23T15:01:16.902Z,0.7
2022-08-23T15:02:25.563Z,0.2
2022-08-23T15:03:33.234Z,0
2022-08-23T15:04:41.889Z,0.1
2022-08-23T15:05:49.553Z,0.2
2022-08-23T15:07:18.037Z,0
2022-08-23T15:08:09.871Z,0.3
2022-08-23T15:09:19.575Z,0.1
2022-08-23T15:12:57.033Z,0.5
2022-08-23T15:14:00.574Z,0.5
2022-08-23T15:15:07.809Z,0.2
2022-08-23T15:16:18.578Z,0.1
2022-08-23T15:17:31.072Z,0.1
2022-08-23T15:18:36.861Z,0.2
2022-08-23T15:19:46.536Z,0.3
2022-08-23T15:20:56.453Z,0.1
2022-08-23T15:22:10.299Z,0.1
2022-08-23T15:23:16.495Z,0.1
2022-08-23T15:24:24.185Z,0.2
2022-08-23T15:25:33.861Z,0.3
2022-08-23T15:26:42.511Z,0.3
2022-08-23T15:27:51.166Z,0.4
2022-08-23T15:29:00.828Z,0.3
2022-08-23T15:30:09.509Z,0.1
2022-08-23T15:31:18.157Z,0.4
2022-08-23T15:32:26.931Z,0.9
2022-08-23T15:33:35.499Z,0.2
2022-08-23T15:34:45.716Z,0.4
2022-08-23T15:35:54.930Z,1.1
2022-08-23T15:37:03.588Z,0.2
2022-08-23T15:38:12.270Z,0.4
2022-08-23T15:39:20.935Z,0.2
2022-08-23T15:40:31.648Z,0.2
2022-08-23T15:41:41.330Z,0.1
2022-08-23T15:42:49.033Z,0.1
2022-08-23T15:43:58.701Z,0.1
2022-08-23T15:45:07.356Z,0.2
2022-08-23T15:46:15.081Z,0.1
2022-08-23T15:47:24.736Z,0.5
2022-08-23T15:48:33.382Z,0.1
2022-08-23T15:49:42.051Z,0.2
2022-08-23T15:50:51.704Z,0.4
2022-08-23T15:52:00.343Z,1
2022-08-23T15:53:10.030Z,1.1
2022-08-23T15:54:18.676Z,0.2
2022-08-23T15:55:26.347Z,0.1
2022-08-23T15:56:36.027Z,0.1
2022-08-23T15:57:45.692Z,0.1
2022-08-23T15:58:54.390Z,0.1
2022-08-23T16:00:02.033Z,0.5
2022-08-23T16:01:10.741Z,0.3